Martinez Lake, Arizona
Current Conditions -  °F | °C
As of 6:57 AM on Sunday 23 Nov 2014 (Local Time) from KNYL Reporting Station
Scattered Clouds Scattered Clouds  
Wind Chill: 55°   Ceiling: Unl
Heat Index: 55°   Visibility: 10mi
Dew Point: 43°   Wind: 0mph
Humidity: 64%   Direction: NA
Pressure: 30.01"   Gusts: NA
Location:  32.7338°N, 114.51°W
Report Text: KNYL 231357Z 00000KT 10SM FEW180 SCT200 13/06 A3001 RMK AO2 SLP161 T01280061 $
Loading
Personal Weather Stations






























Interactive Weather Map New forecast layout! Learn more

10-Day Weather Forecast

Advertisements
Track Severe Weather on mobile